Meteo Giornale » Osservazioni meteo Canada » Prince George B C
ore: 22:00 - Osservazioni Meteo Prince George B C
Lat. 53° 53' N Lon. 122° 41' W Alt. 691 metri s.l.m.
13 °C
Sereno
Temp. 24 Ore
9 °C
20 °C
Nord
5.5 Km/h
Dew point 11 °C
Umidità 87 %
Visibilità 14 Km
Il sole sorge alle ore 06:20
Il sole tramonta alle ore 20:01
| Data e Ora | Cielo e Fenomeni | T °C | DP °C | Um. % | Pres. hPa | Vis. km | Vento km/h | |
|---|---|---|---|---|---|---|---|---|
| Oggi h: 22:00 | Sereno | 13 | 11 | 87 | 999 | 14 | N 5.5 | |
| Oggi h: 21:13 | Foschia | 12 | 12 | 100 | 999 | 10 | N 5.5 | |
| Oggi h: 21:04 | Foschia | 13 | 13 | 100 | 999 | 2 | N 5.5 | |
| Oggi h: 21:03 | Foschia | 13 | 13 | 100 | 999 | 5 | N 5.5 | |
| Oggi h: 21:00 | Sereno | 14 | 14 | 100 | 999 | 14 | S 7.4 | |
| Oggi h: 20:00 | Sereno | 17 | 16 | 93 | 999 | 14 | N 0 | |
| Oggi h: 19:00 | Sereno | 18 | 16 | 88 | 999 | 14 | NE 9.3 | |
| Oggi h: 18:00 | Poco Nuvoloso | 20 | 16 | 77 | 1000 | 14 | N 11.1 | |
| Oggi h: 17:00 | Nuvoloso | 20 | 14 | 68 | 1000 | 14 | E/NE 7.4 | |
| Oggi h: 16:00 | Molto Nuvoloso | 19 | 14 | 72 | 1001 | 14 | N 7.4 | |
| Oggi h: 15:00 | Molto Nuvoloso | 18 | 14 | 77 | 1002 | 14 | N 0 | |
| Oggi h: 14:00 | Coperto | 18 | 13 | 72 | 1002 | 14 | N 5.5 | |
| Oggi h: 13:00 | Molto Nuvoloso | 17 | 13 | 77 | 1003 | 14 | N 7.4 | |
| Oggi h: 12:00 | Molto Nuvoloso | 15 | 13 | 87 | 1003 | 14 | N/NE 9.3 | |
| Oggi h: 11:00 | Molto Nuvoloso | 15 | 14 | 93 | 1003 | 14 | N/NE 7.4 | |
| Oggi h: 10:00 | Molto Nuvoloso | 13 | 12 | 93 | 1004 | 14 | N 3.7 | |
| Oggi h: 09:00 | Coperto | 12 | 12 | 100 | 1004 | 14 | N 5.5 | |
| Oggi h: 08:00 | Coperto | 11 | 11 | 100 | 1004 | 14 | S 9.3 | |
| Oggi h: 07:00 | Coperto | 10 | 10 | 100 | 1004 | 14 | S 11.1 | |
| Oggi h: 06:17 | Coperto | 10 | 10 | 100 | 1004 | 14 | S 9.3 | |
| Oggi h: 06:15 | Foschia | 9 | 9 | 100 | 1004 | 5 | S 9.3 | |
| Oggi h: 06:14 | Foschia | 9 | 9 | 100 | 1004 | 3 | S 9.3 | |
| Oggi h: 06:00 | Foschia | 9 | 9 | 100 | 1004 | 5 | S 11.1 | |
| Oggi h: 05:45 | Nebbia | 9 | 9 | 100 | 1004 | 2 | S 11.1 | |
| Oggi h: 05:36 | Nebbia | 9 | 9 | 100 | 1005 | 2 | S 11.1 | |
| Oggi h: 05:26 | Pioggia Nebbia | 9 | 9 | 100 | 1005 | 2 | S 11.1 | |
| Oggi h: 05:00 | Nebbia | 10 | 10 | 100 | 1005 | 2 | N 5.5 | |
| Oggi h: 04:33 | Nebbia | 10 | 10 | 100 | 1005 | 5 | S 9.3 | |
| Oggi h: 04:21 | Foschia | 9 | 9 | 100 | 1005 | 5 | S 9.3 | |
| Oggi h: 04:18 | Foschia | 9 | 9 | 100 | 1005 | 5 | S 9.3 | |
| Oggi h: 04:15 | Foschia | 9 | 9 | 100 | 1005 | 5 | S 9.3 | |
| Oggi h: 04:08 | Pioggia Nebbia | 9 | 9 | 100 | 1005 | 2 | S 13 | |
| Oggi h: 04:05 | Pioggia Nebbia | 9 | 9 | 100 | 1005 | 5 | S 13 | |
| Oggi h: 04:00 | Nebbia | 10 | 10 | 100 | 1005 | 5 | S 11.1 | |
| Oggi h: 03:27 | Nebbia | 10 | 10 | 100 | 1005 | 5 | N 5.5 | |
| Oggi h: 03:20 | Pioggia Nebbia | 10 | 10 | 100 | 1005 | 5 | N 3.7 | |
| Oggi h: 03:14 | Pioggia Nebbia | 10 | 10 | 100 | 1005 | 5 | N 5.5 | |
| Oggi h: 03:07 | Pioggia Nebbia | 10 | 10 | 100 | 1005 | 5 | N 5.5 | |
| Oggi h: 03:00 | Pioggia Foschia | 10 | 10 | 100 | 1005 | 5 | N 5.5 | |
| Oggi h: 02:57 | Pioggia Foschia | 10 | 10 | 100 | 1005 | 2 | N 5.5 | |
| Oggi h: 02:54 | Foschia | 10 | 10 | 100 | 1005 | 5 | N 5.5 | |
| Oggi h: 02:53 | Foschia | 11 | 11 | 100 | 1005 | 2 | N 5.5 | |
| Oggi h: 02:45 | Coperto | 11 | 11 | 100 | 1005 | 14 | N 0 | |
| Oggi h: 02:30 | Foschia | 11 | 11 | 100 | 1005 | 10 | N 0 | |
| Oggi h: 02:20 | Foschia | 11 | 11 | 100 | 1005 | 2 | N 3.7 | |
| Oggi h: 02:19 | Foschia | 11 | 11 | 100 | 1005 | 8 | N 3.7 | |
| Oggi h: 02:14 | Foschia | 11 | 11 | 100 | 1005 | 10 | N 3.7 | |
| Oggi h: 02:04 | Foschia | 11 | 11 | 100 | 1005 | 6 | N 0 | |
| Oggi h: 02:00 | Coperto | 12 | 12 | 100 | 1005 | 14 | N 0 | |
| Oggi h: 01:00 | Coperto | 12 | 12 | 100 | 1006 | 14 | N 3.7 | |
| Oggi h: 00:00 | Coperto | 12 | 12 | 100 | 1006 | 14 | N 3.7 | |
| Ieri h: 23:37 | Coperto | 12 | 12 | 100 | 1006 | 14 | S 7.4 | |



